createdAt,value
2018-11-05T00:00:47.583Z,19.4
2018-11-05T00:01:37.647Z,19.4
2018-11-05T00:02:28.015Z,19.4
2018-11-05T00:03:18.053Z,19.4
2018-11-05T00:04:08.413Z,19.4
2018-11-05T00:04:58.456Z,19.4
2018-11-05T00:05:48.537Z,19.4
2018-11-05T00:06:38.593Z,19.4
2018-11-05T00:24:53.706Z,19.4
2018-11-05T00:25:43.511Z,19.4
2018-11-05T00:26:33.851Z,19.4
2018-11-05T00:27:23.931Z,19.4
2018-11-05T00:28:13.970Z,19.4
2018-11-05T00:29:04.038Z,19.4
2018-11-05T00:29:54.353Z,19.4
2018-11-05T00:30:44.425Z,19.4
2018-11-05T00:31:34.100Z,19.4
2018-11-05T00:32:24.561Z,19.3
2018-11-05T00:33:14.348Z,19.4
2018-11-05T00:34:04.401Z,19.4
2018-11-05T00:34:54.458Z,19.4
2018-11-05T00:35:44.503Z,19.4
2018-11-05T00:36:34.868Z,19.4
2018-11-05T00:37:24.594Z,19.4
2018-11-05T00:38:14.993Z,19.4
2018-11-05T00:39:04.760Z,19.4
2018-11-05T00:39:55.080Z,19.4
2018-11-05T00:40:45.187Z,19.4
2018-11-05T00:41:35.233Z,19.4
2018-11-05T00:42:25.294Z,19.4
2018-11-05T00:43:15.068Z,19.4
2018-11-05T00:44:05.128Z,19.4
2018-11-05T00:44:55.477Z,19.4
2018-11-05T00:45:45.673Z,19.3
2018-11-05T00:46:35.597Z,19.3
2018-11-05T00:47:25.645Z,19.4
2018-11-05T00:48:15.434Z,19.4
2018-11-05T00:49:05.763Z,19.4
2018-11-05T00:49:55.799Z,19.4
2018-11-05T00:50:45.623Z,19.4
2018-11-05T00:51:35.952Z,19.3
2018-11-05T00:52:25.739Z,19.4
2018-11-05T00:53:15.788Z,19.4
2018-11-05T00:54:06.157Z,19.3
2018-11-05T00:54:55.906Z,19.4
2018-11-05T00:55:46.250Z,19.4
2018-11-05T00:56:36.048Z,19.4
2018-11-05T00:57:26.371Z,19.3
2018-11-05T00:58:16.449Z,19.4
2018-11-05T00:59:06.227Z,19.4
2018-11-05T00:59:56.573Z,19.3
2018-11-05T01:00:46.051Z,19.3
2018-11-05T01:01:36.245Z,19.4
2018-11-05T01:02:26.764Z,19.3
2018-11-05T01:03:16.519Z,19.4
2018-11-05T01:04:06.593Z,19.3
2018-11-05T01:04:56.939Z,19.3
2018-11-05T01:05:46.701Z,19.3
2018-11-05T01:06:36.769Z,19.4
2018-11-05T01:07:26.826Z,19.3
2018-11-05T01:08:17.174Z,19.3
2018-11-05T01:09:07.246Z,19.3
2018-11-05T01:09:57.296Z,19.3
2018-11-05T01:10:47.382Z,19.3
2018-11-05T01:11:37.415Z,19.3
2018-11-05T01:12:27.470Z,19.3
2018-11-05T01:13:17.556Z,19.3
2018-11-05T01:14:07.311Z,19.3
2018-11-05T01:14:57.397Z,19.3
2018-11-05T01:15:48.018Z,19.4
2018-11-05T01:16:37.505Z,19.3
2018-11-05T01:17:27.563Z,19.3
2018-11-05T01:18:17.421Z,19.3
2018-11-05T01:19:07.967Z,19.3
2018-11-05T01:19:58.015Z,19.3
2018-11-05T01:20:47.800Z,19.3
2018-11-05T01:21:37.857Z,19.3
2018-11-05T01:22:28.215Z,19.3
2018-11-05T01:23:17.998Z,19.3
2018-11-05T01:24:08.338Z,19.3
2018-11-05T01:24:58.100Z,19.3
2018-11-05T01:25:48.160Z,19.3
2018-11-05T01:26:38.538Z,19.3
2018-11-05T01:27:28.308Z,19.3
2018-11-05T01:28:18.625Z,19.3
2018-11-05T01:29:08.705Z,19.3
2018-11-05T01:29:58.763Z,19.3
2018-11-05T01:30:48.842Z,19.3
2018-11-05T01:31:38.592Z,19.3
2018-11-05T01:32:28.651Z,19.3
2018-11-05T01:33:18.430Z,19.3
2018-11-05T01:34:08.795Z,19.3
2018-11-05T01:34:58.547Z,19.3
2018-11-05T01:35:49.184Z,19.3
2018-11-05T01:36:38.969Z,19.3
2018-11-05T01:37:29.018Z,19.3
2018-11-05T01:38:19.366Z,19.3
2018-11-05T01:39:09.124Z,19.3
2018-11-05T01:39:59.487Z,19.3
2018-11-05T01:40:49.272Z,19.3
2018-11-05T01:41:39.329Z,19.3
2018-11-05T01:42:29.664Z,19.3
2018-11-05T01:43:19.156Z,19.3
2018-11-05T01:44:09.809Z,19.3
2018-11-05T01:44:59.847Z,19.3
2018-11-05T01:45:49.908Z,19.3
2018-11-05T01:46:39.683Z,19.3
2018-11-05T01:47:30.056Z,19.3
2018-11-05T01:48:19.543Z,19.3
2018-11-05T01:49:10.153Z,19.3
2018-11-05T01:50:00.210Z,19.3
2018-11-05T01:50:49.715Z,19.3
2018-11-05T01:51:40.593Z,19.3
2018-11-05T01:52:30.128Z,19.3
2018-11-05T01:53:20.468Z,19.3
2018-11-05T01:54:09.951Z,19.3
2018-11-05T01:55:00.098Z,19.3
2018-11-05T01:55:50.073Z,19.3
2018-11-05T01:56:40.420Z,19.3
2018-11-05T01:57:30.761Z,19.3
2018-11-05T01:58:20.823Z,19.3
2018-11-05T01:59:10.842Z,19.3
2018-11-05T02:00:00.966Z,19.3
2018-11-05T02:00:50.725Z,19.3
2018-11-05T02:01:40.780Z,19.3
2018-11-05T02:02:31.190Z,19.3
2018-11-05T02:03:21.200Z,19.3
2018-11-05T02:04:10.963Z,19.3
2018-11-05T02:05:01.328Z,19.3
2018-11-05T02:05:51.382Z,19.3
2018-11-05T02:06:41.443Z,19.3
2018-11-05T02:07:31.209Z,19.3
2018-11-05T02:08:21.273Z,19.3
2018-11-05T02:09:11.344Z,19.3
2018-11-05T02:10:01.807Z,19.3
2018-11-05T02:10:51.445Z,19.3
2018-11-05T02:11:41.797Z,19.3
2018-11-05T02:12:32.119Z,19.3
2018-11-05T02:13:22.114Z,19.3
2018-11-05T02:14:11.985Z,19.3
2018-11-05T02:15:02.070Z,19.3
2018-11-05T02:15:52.496Z,19.3
2018-11-05T02:16:42.172Z,19.3
2018-11-05T02:17:32.237Z,19.3
2018-11-05T02:18:22.012Z,19.3
2018-11-05T02:19:12.370Z,19.3
2018-11-05T02:20:02.416Z,19.3
2018-11-05T02:20:52.191Z,19.3
2018-11-05T02:21:42.249Z,19.3
2018-11-05T02:22:32.584Z,19.3
2018-11-05T02:23:22.655Z,19.3
2018-11-05T02:24:12.449Z,19.3
2018-11-05T02:25:02.486Z,19.3
2018-11-05T02:25:52.552Z,19.3
2018-11-05T02:26:42.894Z,19.3
2018-11-05T02:27:32.384Z,19.3
2018-11-05T02:28:22.735Z,19.3
2018-11-05T02:29:13.073Z,19.3
2018-11-05T02:30:02.583Z,19.3
2018-11-05T02:30:53.198Z,19.3
2018-11-05T02:31:43.268Z,19.3
2018-11-05T02:32:33.332Z,19.3
2018-11-05T02:33:23.405Z,19.3
2018-11-05T02:34:13.458Z,19.3
2018-11-05T02:35:03.518Z,19.3
2018-11-05T02:35:53.274Z,19.3
2018-11-05T02:36:43.643Z,19.3
2018-11-05T02:37:33.658Z,19.3
2018-11-05T02:38:23.751Z,19.3
2018-11-05T02:39:13.804Z,19.3
2018-11-05T02:40:03.880Z,19.3
2018-11-05T02:40:53.452Z,19.3
2018-11-05T02:41:43.997Z,19.3
2018-11-05T02:42:34.045Z,19.3
2018-11-05T02:43:24.373Z,19.3
2018-11-05T02:44:14.173Z,19.3
2018-11-05T02:45:04.237Z,19.3
2018-11-05T02:45:54.017Z,19.3
2018-11-05T02:46:44.068Z,19.3
2018-11-05T02:47:34.147Z,19.3
2018-11-05T02:48:24.460Z,19.3
2018-11-05T02:49:14.252Z,19.3
2018-11-05T02:50:04.602Z,19.3
2018-11-05T02:50:54.339Z,19.3
2018-11-05T02:51:44.449Z,19.3
2018-11-05T02:52:34.827Z,19.3
2018-11-05T02:53:24.842Z,19.3
2018-11-05T02:54:14.917Z,19.3
2018-11-05T02:55:04.977Z,19.3
2018-11-05T02:55:54.749Z,19.3
2018-11-05T02:56:45.082Z,19.3
2018-11-05T02:57:34.865Z,19.3
2018-11-05T02:58:25.209Z,19.3
2018-11-05T02:59:14.984Z,19.3
2018-11-05T03:00:04.759Z,19.3
2018-11-05T03:00:55.388Z,19.3
2018-11-05T03:01:44.974Z,19.3
2018-11-05T03:02:35.237Z,19.3
2018-11-05T03:03:25.927Z,19.3
2018-11-05T03:04:15.687Z,19.3
2018-11-05T03:05:05.719Z,19.2
2018-11-05T03:05:55.789Z,19.3
2018-11-05T03:06:45.536Z,19.3
2018-11-05T03:07:35.391Z,19.3
2018-11-05T03:08:25.646Z,19.3
2018-11-05T03:09:16.008Z,19.3
2018-11-05T03:10:05.782Z,19.3
2018-11-05T03:10:56.113Z,19.3
2018-11-05T03:11:46.194Z,19.2
2018-11-05T03:12:35.969Z,19.3
2018-11-05T03:13:26.316Z,19.3
2018-11-05T03:14:16.396Z,19.3
2018-11-05T03:15:06.437Z,19.3
2018-11-05T03:15:56.198Z,19.3
2018-11-05T03:16:46.543Z,19.3
2018-11-05T03:17:36.645Z,19.3
2018-11-05T03:18:26.674Z,19.3
2018-11-05T03:19:16.736Z,19.2
2018-11-05T03:20:06.781Z,19.3
2018-11-05T03:20:56.854Z,19.2
2018-11-05T03:21:46.918Z,19.2
2018-11-05T03:22:36.410Z,19.3
2018-11-05T03:23:27.308Z,19.2
2018-11-05T03:24:16.812Z,19.2
2018-11-05T03:25:07.161Z,19.2
2018-11-05T03:25:57.211Z,19.2
2018-11-05T03:26:47.013Z,19.3
2018-11-05T03:27:37.323Z,19.2
2018-11-05T03:28:27.396Z,19.2
2018-11-05T03:29:17.187Z,19.2
2018-11-05T03:30:07.520Z,19.2
2018-11-05T03:30:57.305Z,19.2
2018-11-05T03:31:47.315Z,19.2
2018-11-05T03:32:37.418Z,19.2
2018-11-05T03:33:27.763Z,19.2
2018-11-05T03:34:17.547Z,19.2
2018-11-05T03:35:07.613Z,19.2
2018-11-05T03:35:58.449Z,19.2
2018-11-05T03:36:48.282Z,19.2
2018-11-05T03:37:37.775Z,19.2
2018-11-05T03:38:28.136Z,19.2
2018-11-05T03:39:18.463Z,19.2
2018-11-05T03:40:07.960Z,19.2
2018-11-05T03:40:58.317Z,19.2
2018-11-05T03:41:48.376Z,19.2
2018-11-05T03:42:38.145Z,19.2
2018-11-05T03:43:28.517Z,19.2
2018-11-05T03:44:18.264Z,19.2
2018-11-05T03:45:08.623Z,19.2
2018-11-05T03:45:58.393Z,19.2
2018-11-05T03:46:48.445Z,19.2
2018-11-05T03:47:38.787Z,19.2
2018-11-05T03:48:28.577Z,19.2
2018-11-05T03:49:18.732Z,19.2
2018-11-05T03:50:08.967Z,19.2
2018-11-05T03:50:59.045Z,19.2
2018-11-05T03:51:49.089Z,19.2
2018-11-05T03:52:38.867Z,19.2
2018-11-05T03:53:29.247Z,19.2
2018-11-05T03:54:19.295Z,19.2
2018-11-05T03:55:09.349Z,19.2
2018-11-05T03:55:59.409Z,19.2
2018-11-05T03:56:50.025Z,19.2
2018-11-05T03:57:39.531Z,19.2
2018-11-05T03:58:29.291Z,19.2
2018-11-05T03:59:19.071Z,19.2
2018-11-05T04:00:09.963Z,19.2
2018-11-05T04:00:59.767Z,19.2
2018-11-05T04:01:49.543Z,19.2
2018-11-05T04:02:39.911Z,19.2
2018-11-05T04:03:29.904Z,19.2
2018-11-05T04:04:20.011Z,19.2
2018-11-05T04:05:10.067Z,19.2
2018-11-05T04:06:00.101Z,19.2
2018-11-05T04:06:50.196Z,19.2
2018-11-05T04:07:40.260Z,19.2
2018-11-05T04:08:30.318Z,19.2
2018-11-05T04:09:20.083Z,19.2
2018-11-05T04:10:10.159Z,19.2
2018-11-05T04:11:00.516Z,19.2
2018-11-05T04:11:49.977Z,19.2
2018-11-05T04:12:40.621Z,19.2
2018-11-05T04:13:30.403Z,19.2
2018-11-05T04:14:20.439Z,19.2
2018-11-05T04:15:11.049Z,19.2
2018-11-05T04:16:01.232Z,19.2
2018-11-05T04:16:50.920Z,19.2
2018-11-05T04:17:40.767Z,19.2
2018-11-05T04:18:31.066Z,19.2
2018-11-05T04:19:20.807Z,19.2
2018-11-05T04:20:11.400Z,19.2
2018-11-05T04:21:00.951Z,19.2
2018-11-05T04:21:51.002Z,19.2
2018-11-05T04:22:41.063Z,19.2
2018-11-05T04:23:31.407Z,19.2
2018-11-05T04:24:21.187Z,19.2
2018-11-05T04:25:11.256Z,19.2
2018-11-05T04:26:01.605Z,19.2
2018-11-05T04:26:51.671Z,19.2
2018-11-05T04:27:41.593Z,19.2
2018-11-05T04:28:31.769Z,19.2
2018-11-05T04:29:21.849Z,19.2
2018-11-05T04:30:11.611Z,19.2
2018-11-05T04:31:01.952Z,19.2
2018-11-05T04:31:52.015Z,19.2
2018-11-05T04:32:42.074Z,19.2
2018-11-05T04:33:32.138Z,19.2
2018-11-05T04:34:22.189Z,19.2
2018-11-05T04:35:12.257Z,19.2
2018-11-05T04:36:02.307Z,19.2
2018-11-05T04:54:05.540Z,19.2
2018-11-05T04:54:55.883Z,19.2
2018-11-05T04:55:45.951Z,19.2
2018-11-05T04:56:35.718Z,19.2
2018-11-05T04:57:25.491Z,19.2
2018-11-05T04:58:16.376Z,19.2
2018-11-05T04:59:06.185Z,19.2
2018-11-05T04:59:55.658Z,19.2
2018-11-05T05:00:46.269Z,19.2
2018-11-05T05:01:36.348Z,19.2
2018-11-05T05:02:26.126Z,19.3
2018-11-05T05:03:16.604Z,19.2
2018-11-05T05:04:06.244Z,19.2
2018-11-05T05:04:56.606Z,19.2
2018-11-05T05:05:46.672Z,19.3
2018-11-05T05:06:36.711Z,19.2
2018-11-05T05:07:26.485Z,19.3
2018-11-05T05:08:16.266Z,19.2
2018-11-05T05:09:06.915Z,19.2
2018-11-05T05:09:56.963Z,19.3
2018-11-05T05:10:46.447Z,19.3
2018-11-05T05:11:36.505Z,19.2
2018-11-05T05:12:26.849Z,19.3
2018-11-05T05:13:17.187Z,19.3
2018-11-05T05:14:06.980Z,19.3
2018-11-05T05:14:57.307Z,19.3
2018-11-05T05:15:47.104Z,19.3
2018-11-05T05:16:37.428Z,19.2
2018-11-05T05:17:27.227Z,19.3
2018-11-05T05:18:17.549Z,19.2
2018-11-05T05:19:07.629Z,19.2
2018-11-05T05:19:57.941Z,19.2
2018-11-05T05:20:47.739Z,19.2
2018-11-05T05:21:37.793Z,19.2
2018-11-05T05:22:27.778Z,19.2
2018-11-05T05:23:17.727Z,19.2
2018-11-05T05:24:07.701Z,19.2
2018-11-05T05:24:58.049Z,19.2
2018-11-05T05:25:48.099Z,19.2
2018-11-05T05:26:38.162Z,19.2
2018-11-05T05:27:28.040Z,19.2
2018-11-05T05:28:18.007Z,19.2
2018-11-05T05:29:08.058Z,19.2
2018-11-05T05:29:58.116Z,19.2
2018-11-05T05:30:48.460Z,19.2
2018-11-05T05:31:38.253Z,19.1
2018-11-05T05:32:28.596Z,19.1
2018-11-05T05:33:18.720Z,19.2
2018-11-05T05:34:08.736Z,19.1
2018-11-05T05:34:59.008Z,19.1
2018-11-05T05:35:48.538Z,19.2
2018-11-05T05:36:38.608Z,19.2
2018-11-05T05:37:28.677Z,19.1
2018-11-05T05:38:19.023Z,19.1
2018-11-05T05:39:08.798Z,19.1
2018-11-05T05:39:58.843Z,19.2
2018-11-05T05:40:49.350Z,19.1
2018-11-05T05:41:38.963Z,19.2
2018-11-05T05:42:29.317Z,19.1
2018-11-05T05:43:19.091Z,19.1
2018-11-05T05:44:09.435Z,19.1
2018-11-05T05:44:59.503Z,19.1
2018-11-05T05:45:49.550Z,19.1
2018-11-05T05:46:39.322Z,19.1
2018-11-05T05:47:29.677Z,19.1
2018-11-05T05:48:19.444Z,19.1
2018-11-05T05:49:09.782Z,19.1
2018-11-05T05:49:59.985Z,19.2
2018-11-05T05:50:49.624Z,19.1
2018-11-05T05:51:39.967Z,19.1
2018-11-05T05:52:30.029Z,19.1
2018-11-05T05:53:20.085Z,19.1
2018-11-05T05:54:10.160Z,19.1
2018-11-05T05:55:00.212Z,19.2
2018-11-05T05:55:50.263Z,19.2
2018-11-05T05:56:40.324Z,19.1
2018-11-05T05:57:30.104Z,19.1
2018-11-05T05:58:20.186Z,19.2
2018-11-05T05:59:10.029Z,19.2
2018-11-05T06:00:00.739Z,19.2
2018-11-05T06:00:50.152Z,19.2
2018-11-05T06:01:40.126Z,19.2
2018-11-05T06:02:30.471Z,19.2
2018-11-05T06:03:20.543Z,19.2
2018-11-05T06:04:10.861Z,19.1
2018-11-05T06:05:00.651Z,19.2
2018-11-05T06:05:50.728Z,19.2
2018-11-05T06:06:40.924Z,19.2
2018-11-05T06:07:30.841Z,19.2
2018-11-05T06:08:20.891Z,19.2
2018-11-05T06:09:11.306Z,19.2
2018-11-05T06:10:01.006Z,19.2
2018-11-05T06:10:51.367Z,19.2
2018-11-05T06:11:41.130Z,19.2
2018-11-05T06:12:31.480Z,19.3
2018-11-05T06:13:21.255Z,19.3
2018-11-05T06:14:11.598Z,19.2
2018-11-05T06:15:01.369Z,19.2
2018-11-05T06:15:51.827Z,19.3
2018-11-05T06:16:41.508Z,19.3
2018-11-05T06:17:31.550Z,19.3
2018-11-05T06:18:21.903Z,19.3
2018-11-05T06:19:11.683Z,19.2
2018-11-05T06:20:02.043Z,19.2
2018-11-05T06:20:51.793Z,19.3
2018-11-05T06:21:42.241Z,19.3
2018-11-05T06:22:31.908Z,19.3
2018-11-05T06:23:22.002Z,19.3
2018-11-05T06:24:12.328Z,19.3
2018-11-05T06:25:02.111Z,19.3
2018-11-05T06:25:52.440Z,19.3
2018-11-05T06:26:42.223Z,19.3
2018-11-05T06:27:32.078Z,19.3
2018-11-05T06:28:22.653Z,19.3
2018-11-05T06:29:12.678Z,19.3
2018-11-05T06:30:02.748Z,19.3
2018-11-05T06:30:52.825Z,19.3
2018-11-05T06:31:42.665Z,19.3
2018-11-05T06:32:32.653Z,19.3
2018-11-05T06:33:22.980Z,19.3
2018-11-05T06:34:12.771Z,19.3
2018-11-05T06:35:03.158Z,19.3
2018-11-05T06:35:53.163Z,19.3
2018-11-05T06:36:43.242Z,19.3
2018-11-05T06:37:33.000Z,19.3
2018-11-05T06:38:23.069Z,19.3
2018-11-05T06:39:13.427Z,19.3
2018-11-05T06:40:03.177Z,19.3
2018-11-05T06:40:53.532Z,19.3
2018-11-05T06:41:43.497Z,19.3
2018-11-05T06:42:33.072Z,19.3
2018-11-05T06:43:23.417Z,19.3
2018-11-05T06:44:14.347Z,19.3
2018-11-05T06:45:03.853Z,19.3
2018-11-05T06:45:53.903Z,19.3
2018-11-05T06:46:43.949Z,19.3
2018-11-05T06:47:34.016Z,19.3
2018-11-05T06:48:24.077Z,19.3
2018-11-05T06:49:13.844Z,19.3
2018-11-05T06:50:04.199Z,19.3
2018-11-05T06:50:54.241Z,19.4
2018-11-05T06:51:44.306Z,19.4
2018-11-05T06:52:34.429Z,19.3
2018-11-05T06:53:24.193Z,19.4
2018-11-05T06:54:14.496Z,19.3
2018-11-05T06:55:04.573Z,19.4
2018-11-05T06:55:54.621Z,19.4
2018-11-05T06:56:44.487Z,19.4
2018-11-05T06:57:34.807Z,19.4
2018-11-05T06:58:24.808Z,19.4
2018-11-05T06:59:14.564Z,19.4
2018-11-05T07:00:04.908Z,19.4
2018-11-05T07:00:54.409Z,19.4
2018-11-05T07:01:45.039Z,19.4
2018-11-05T07:02:34.631Z,19.4
2018-11-05T07:03:24.876Z,19.4
2018-11-05T07:04:14.925Z,19.4
2018-11-05T07:05:05.289Z,19.4
2018-11-05T07:05:55.559Z,19.4
2018-11-05T07:06:45.125Z,19.4
2018-11-05T07:07:35.453Z,19.4
2018-11-05T07:08:25.524Z,19.4
2018-11-05T07:09:15.301Z,19.4
2018-11-05T07:10:05.632Z,19.4
2018-11-05T07:10:55.414Z,19.4
2018-11-05T07:11:45.186Z,19.4
2018-11-05T07:12:35.829Z,19.4
2018-11-05T07:13:25.886Z,19.4
2018-11-05T07:14:15.660Z,19.4
2018-11-05T07:15:06.009Z,19.4
2018-11-05T07:15:55.769Z,19.4
2018-11-05T07:16:45.549Z,19.4
2018-11-05T07:17:36.186Z,19.4
2018-11-05T07:18:26.224Z,19.4
2018-11-05T07:19:16.172Z,19.4
2018-11-05T07:20:06.605Z,19.4
2018-11-05T07:20:56.145Z,19.4
2018-11-05T07:21:45.911Z,19.4
2018-11-05T07:22:36.260Z,19.4
2018-11-05T07:23:26.605Z,19.4
2018-11-05T07:24:16.668Z,19.4
2018-11-05T07:25:06.153Z,19.4
2018-11-05T07:25:56.213Z,19.4
2018-11-05T07:26:46.563Z,19.4
2018-11-05T07:27:37.058Z,19.4
2018-11-05T07:28:26.958Z,19.5
2018-11-05T07:29:17.028Z,19.5
2018-11-05T07:30:06.792Z,19.5
2018-11-05T07:30:57.138Z,19.4
2018-11-05T07:31:46.729Z,19.5
2018-11-05T07:32:36.688Z,19.5
2018-11-05T07:33:27.799Z,19.5
2018-11-05T07:34:17.603Z,19.5
2018-11-05T07:35:07.173Z,19.5
2018-11-05T07:35:57.238Z,19.5
2018-11-05T07:36:46.998Z,19.5
2018-11-05T07:37:37.653Z,19.5
2018-11-05T07:38:27.201Z,19.5
2018-11-05T07:39:17.458Z,19.5
2018-11-05T07:40:07.527Z,19.5
2018-11-05T07:40:57.882Z,19.5
2018-11-05T07:41:47.659Z,19.5
2018-11-05T07:42:37.415Z,19.5
2018-11-05T07:43:28.357Z,19.5
2018-11-05T07:44:18.132Z,19.5
2018-11-05T07:45:07.878Z,19.5
2018-11-05T07:45:58.245Z,19.5
2018-11-05T07:46:47.997Z,19.5
2018-11-05T07:47:38.062Z,19.5
2018-11-05T07:48:28.122Z,19.5
2018-11-05T07:49:18.461Z,19.5
2018-11-05T07:50:08.563Z,19.5
2018-11-05T07:50:58.597Z,19.5
2018-11-05T07:51:48.377Z,19.5
2018-11-05T07:52:38.427Z,19.6
2018-11-05T07:53:28.744Z,19.6
2018-11-05T07:54:18.842Z,19.5
2018-11-05T07:55:08.617Z,19.5
2018-11-05T07:55:58.689Z,19.6
2018-11-05T07:56:49.250Z,19.6
2018-11-05T07:57:38.789Z,19.6
2018-11-05T07:58:29.132Z,19.6
2018-11-05T07:59:18.908Z,19.6
2018-11-05T08:00:09.266Z,19.6
2018-11-05T08:00:59.036Z,19.6
2018-11-05T08:01:49.386Z,19.6
2018-11-05T08:02:39.188Z,19.6
2018-11-05T08:03:29.492Z,19.6
2018-11-05T08:04:19.514Z,19.6
2018-11-05T08:05:09.341Z,19.6
2018-11-05T08:05:59.403Z,19.6
2018-11-05T08:06:49.788Z,19.6
2018-11-05T08:07:39.528Z,19.6
2018-11-05T08:08:30.009Z,19.6
2018-11-05T08:09:19.913Z,19.6
2018-11-05T08:10:09.992Z,19.6
2018-11-05T08:11:00.048Z,19.6
2018-11-05T08:11:50.111Z,19.6
2018-11-05T08:12:40.185Z,19.6
2018-11-05T08:13:30.227Z,19.6
2018-11-05T08:14:20.576Z,19.6
2018-11-05T08:15:09.772Z,19.6
2018-11-05T08:16:00.110Z,19.6
2018-11-05T08:16:50.175Z,19.6
2018-11-05T08:17:40.515Z,19.6
2018-11-05T08:18:30.292Z,19.6
2018-11-05T08:19:20.647Z,19.6
2018-11-05T08:20:10.415Z,19.6
2018-11-05T08:21:00.468Z,19.6
2018-11-05T08:21:50.545Z,19.6
2018-11-05T08:22:40.592Z,19.6
2018-11-05T08:23:30.967Z,19.6
2018-11-05T08:24:20.432Z,19.6
2018-11-05T08:25:10.787Z,19.6
2018-11-05T08:26:01.100Z,19.6
2018-11-05T08:26:51.175Z,19.6
2018-11-05T08:27:41.249Z,19.6
2018-11-05T08:28:31.034Z,19.6
2018-11-05T08:29:21.092Z,19.6
2018-11-05T08:30:11.434Z,19.6
2018-11-05T08:31:01.495Z,19.6
2018-11-05T08:31:51.277Z,19.6
2018-11-05T08:32:41.608Z,19.6
2018-11-05T08:33:31.674Z,19.6
2018-11-05T08:34:21.241Z,19.6
2018-11-05T08:35:11.789Z,19.6
2018-11-05T08:36:01.562Z,19.7
2018-11-05T08:36:51.619Z,19.6
2018-11-05T08:37:41.682Z,19.6
2018-11-05T08:38:32.040Z,19.6
2018-11-05T08:39:21.804Z,19.6
2018-11-05T08:40:12.433Z,19.6
2018-11-05T08:41:02.224Z,19.6
2018-11-05T08:41:52.284Z,19.6
2018-11-05T08:42:42.056Z,19.6
2018-11-05T08:43:32.420Z,19.6
2018-11-05T08:44:22.249Z,19.6
2018-11-05T08:45:12.222Z,19.7
2018-11-05T08:46:02.568Z,19.7
2018-11-05T08:46:52.695Z,19.6
2018-11-05T08:47:42.707Z,19.6
2018-11-05T08:48:32.482Z,19.6
2018-11-05T08:49:22.523Z,19.6
2018-11-05T08:50:12.716Z,19.7
2018-11-05T08:51:03.769Z,19.6
2018-11-05T08:51:52.853Z,19.7
2018-11-05T09:08:35.980Z,19.7
2018-11-05T09:09:26.122Z,19.7
2018-11-05T09:10:16.763Z,19.7
2018-11-05T09:11:06.362Z,19.7
2018-11-05T09:11:56.616Z,19.7
2018-11-05T09:12:46.596Z,19.7
2018-11-05T09:13:37.092Z,19.7
2018-11-05T09:14:26.385Z,19.7
2018-11-05T09:15:16.720Z,19.7
2018-11-05T09:16:07.022Z,19.7
2018-11-05T09:16:56.567Z,19.7
2018-11-05T09:17:46.612Z,19.7
2018-11-05T09:18:36.392Z,19.7
2018-11-05T09:19:27.042Z,19.7
2018-11-05T09:20:17.099Z,19.7
2018-11-05T09:21:06.569Z,19.7
2018-11-05T09:21:56.727Z,19.7
2018-11-05T09:22:47.263Z,19.7
2018-11-05T09:23:37.038Z,19.7
2018-11-05T09:24:27.397Z,19.7
2018-11-05T09:25:17.177Z,19.7
2018-11-05T09:26:07.522Z,19.7
2018-11-05T09:26:57.281Z,19.7
2018-11-05T09:27:47.759Z,19.7
2018-11-05T09:28:37.714Z,19.7
2018-11-05T09:29:27.739Z,19.7
2018-11-05T09:30:17.809Z,19.7
2018-11-05T09:31:07.860Z,19.7
2018-11-05T09:31:57.654Z,19.7
2018-11-05T09:32:47.699Z,19.7
2018-11-05T09:33:37.779Z,19.7
2018-11-05T09:34:27.846Z,19.7
2018-11-05T09:35:18.205Z,19.7
2018-11-05T09:36:08.246Z,19.7
2018-11-05T09:36:57.721Z,19.7
2018-11-05T09:37:48.077Z,19.8
2018-11-05T09:38:38.138Z,19.7
2018-11-05T09:39:28.449Z,19.7
2018-11-05T09:40:18.253Z,19.7
2018-11-05T09:41:08.596Z,19.7
2018-11-05T09:41:58.666Z,19.8
2018-11-05T09:42:48.742Z,19.7
2018-11-05T09:43:38.221Z,19.7
2018-11-05T09:44:28.564Z,19.7
2018-11-05T09:45:18.618Z,19.7
2018-11-05T09:46:08.955Z,19.7
2018-11-05T09:46:58.750Z,19.8
2018-11-05T09:47:49.097Z,19.8
2018-11-05T09:48:38.872Z,19.8
2018-11-05T09:49:28.970Z,19.7
2018-11-05T09:50:19.353Z,19.8
2018-11-05T09:51:09.349Z,19.8
2018-11-05T09:51:59.123Z,19.7
2018-11-05T09:52:49.460Z,19.7
2018-11-05T09:53:39.517Z,19.7
2018-11-05T09:54:29.580Z,19.7
2018-11-05T09:55:19.647Z,19.8
2018-11-05T09:56:09.688Z,19.8
2018-11-05T09:56:59.553Z,19.7
2018-11-05T09:57:49.563Z,19.8
2018-11-05T09:58:39.895Z,19.7
2018-11-05T09:59:29.929Z,19.7
2018-11-05T10:00:19.705Z,19.8
2018-11-05T10:01:09.480Z,19.7
2018-11-05T10:01:59.845Z,19.7
2018-11-05T10:02:50.215Z,19.7
2018-11-05T10:03:41.114Z,19.8
2018-11-05T10:04:31.412Z,19.8
2018-11-05T10:05:20.676Z,19.8
2018-11-05T10:06:10.142Z,19.7
2018-11-05T10:07:00.474Z,19.7
2018-11-05T10:07:50.557Z,19.8
2018-11-05T10:08:40.604Z,19.7
2018-11-05T10:09:30.520Z,19.7
2018-11-05T10:10:20.950Z,19.8
2018-11-05T10:11:10.507Z,19.8
2018-11-05T10:12:00.868Z,19.7
2018-11-05T10:12:50.914Z,19.8
2018-11-05T10:13:40.676Z,19.7
2018-11-05T10:14:31.021Z,19.8
2018-11-05T10:15:21.101Z,19.8
2018-11-05T10:16:10.584Z,19.8
2018-11-05T10:17:01.223Z,19.7
2018-11-05T10:17:51.280Z,19.7
2018-11-05T10:18:41.320Z,19.8
2018-11-05T10:19:31.102Z,19.8
2018-11-05T10:20:21.440Z,19.8
2018-11-05T10:21:11.523Z,19.8
2018-11-05T10:22:01.280Z,19.8
2018-11-05T10:22:51.351Z,19.7
2018-11-05T10:23:41.700Z,19.8
2018-11-05T10:24:32.117Z,19.8
2018-11-05T10:25:21.245Z,19.8
2018-11-05T10:26:11.680Z,19.8
2018-11-05T10:27:01.643Z,19.7
2018-11-05T10:27:51.718Z,19.8
2018-11-05T10:28:41.485Z,19.8
2018-11-05T10:29:31.550Z,19.8
2018-11-05T10:30:21.892Z,19.8
2018-11-05T10:31:11.952Z,19.8
2018-11-05T10:32:02.026Z,19.8
2018-11-05T10:32:52.495Z,19.8
2018-11-05T10:33:41.945Z,19.8
2018-11-05T10:34:32.490Z,19.8
2018-11-05T10:35:22.255Z,19.8
2018-11-05T10:36:12.322Z,19.7
2018-11-05T10:37:02.397Z,19.8
2018-11-05T10:37:52.157Z,19.8
2018-11-05T10:38:42.215Z,19.8
2018-11-05T10:39:32.562Z,19.7
2018-11-05T10:40:23.039Z,19.7
2018-11-05T10:41:12.982Z,19.8
2018-11-05T10:42:02.754Z,19.8
2018-11-05T10:42:52.605Z,19.8
2018-11-05T10:43:42.862Z,19.8
2018-11-05T10:44:33.203Z,19.8
2018-11-05T10:45:22.789Z,19.8
2018-11-05T10:46:13.581Z,19.8
2018-11-05T10:47:03.122Z,19.8
2018-11-05T10:47:53.466Z,19.8
2018-11-05T10:48:43.239Z,19.8
2018-11-05T10:49:33.592Z,19.8
2018-11-05T10:50:24.008Z,19.8
2018-11-05T10:51:13.854Z,19.8
2018-11-05T10:52:04.557Z,19.8
2018-11-05T10:52:53.831Z,19.8
2018-11-05T10:53:43.871Z,19.8
2018-11-05T10:54:34.007Z,19.8
2018-11-05T10:55:24.010Z,19.8
2018-11-05T10:56:13.886Z,19.8
2018-11-05T10:57:04.358Z,19.8
2018-11-05T10:57:54.203Z,19.8
2018-11-05T10:58:44.255Z,19.8
2018-11-05T10:59:34.018Z,19.8
2018-11-05T11:00:23.805Z,19.8
2018-11-05T11:01:14.440Z,19.8
2018-11-05T11:02:04.733Z,19.8
2018-11-05T11:02:54.569Z,19.7
2018-11-05T11:03:44.421Z,19.8
2018-11-05T11:04:34.883Z,19.8
2018-11-05T11:05:24.748Z,19.8
2018-11-05T11:06:14.520Z,19.8
2018-11-05T11:07:04.850Z,19.8
2018-11-05T11:07:54.630Z,19.8
2018-11-05T11:08:44.976Z,19.8
2018-11-05T11:09:34.855Z,19.8
2018-11-05T11:10:25.098Z,19.8
2018-11-05T11:11:15.158Z,19.8
2018-11-05T11:12:04.950Z,19.8
2018-11-05T11:12:55.273Z,19.8
2018-11-05T11:13:45.056Z,19.8
2018-11-05T11:14:35.431Z,19.8
2018-11-05T11:15:25.544Z,19.8
2018-11-05T11:16:15.255Z,19.8
2018-11-05T11:17:05.313Z,19.8
2018-11-05T11:17:55.362Z,19.8
2018-11-05T11:18:45.717Z,19.8
2018-11-05T11:19:35.479Z,19.8
2018-11-05T11:20:25.854Z,19.8
2018-11-05T11:21:15.603Z,19.8
2018-11-05T11:22:05.451Z,19.8
2018-11-05T11:22:55.540Z,19.8
2018-11-05T11:23:46.202Z,19.8
2018-11-05T11:24:36.148Z,19.8
2018-11-05T11:25:25.921Z,19.8
2018-11-05T11:26:15.777Z,19.8
2018-11-05T11:27:06.039Z,19.8
2018-11-05T11:27:56.856Z,19.8
2018-11-05T11:28:46.302Z,19.8
2018-11-05T11:29:36.497Z,19.8
2018-11-05T11:30:26.020Z,19.8
2018-11-05T11:31:16.629Z,19.8
2018-11-05T11:32:06.676Z,19.8
2018-11-05T11:32:56.462Z,19.8
2018-11-05T11:33:46.519Z,19.8
2018-11-05T11:34:36.293Z,19.8
2018-11-05T11:35:26.966Z,19.8
2018-11-05T11:36:16.979Z,19.8
2018-11-05T11:37:07.320Z,19.8
2018-11-05T11:37:57.104Z,19.8
2018-11-05T11:38:47.181Z,19.8
2018-11-05T11:39:36.965Z,19.8
2018-11-05T11:40:27.286Z,19.8
2018-11-05T11:41:17.351Z,19.8
2018-11-05T11:42:07.131Z,19.8
2018-11-05T11:42:57.478Z,19.8
2018-11-05T11:43:47.811Z,19.8
2018-11-05T11:44:37.365Z,19.8
2018-11-05T11:45:27.366Z,19.8
2018-11-05T11:46:17.423Z,19.8
2018-11-05T11:47:07.206Z,19.8
2018-11-05T11:47:57.643Z,19.8
2018-11-05T11:48:47.913Z,19.8
2018-11-05T11:49:37.695Z,19.8
2018-11-05T11:50:28.040Z,19.8
2018-11-05T11:51:18.075Z,19.8
2018-11-05T11:52:08.391Z,19.8
2018-11-05T11:52:58.084Z,19.8
2018-11-05T11:53:48.226Z,19.8
2018-11-05T11:54:38.330Z,19.8
2018-11-05T11:55:28.398Z,19.8
2018-11-05T11:56:17.902Z,19.8
2018-11-05T11:57:08.532Z,19.8